createdAt,value
2023-04-07T00:00:06.346Z,97567.41
2023-04-07T00:02:39.309Z,97567.59
2023-04-07T00:05:07.363Z,97562.25
2023-04-07T00:07:44.885Z,97559.88
2023-04-07T00:10:20.520Z,97562.38
2023-04-07T00:12:48.188Z,97553.78
2023-04-07T00:15:15.882Z,97550.25
2023-04-07T00:17:43.558Z,97558.97
2023-04-07T00:20:11.665Z,97556.13
2023-04-07T00:22:40.710Z,97547.44
2023-04-07T00:25:08.888Z,97550.97
2023-04-07T00:27:36.571Z,97546.63
2023-04-07T00:30:04.390Z,97546.72
2023-04-07T00:32:32.742Z,97544.25
2023-04-07T00:35:02.197Z,97541.44
2023-04-07T00:37:30.480Z,97542.25
2023-04-07T00:39:59.696Z,97540.94
2023-04-07T00:42:27.530Z,97539.16
2023-04-07T00:44:55.486Z,97537.31
2023-04-07T00:47:23.166Z,97540.84
2023-04-07T00:49:51.010Z,97537.69
2023-04-07T00:52:18.646Z,97521.31
2023-04-07T00:54:46.862Z,97525.31
2023-04-07T00:57:15.978Z,97525.06
2023-04-07T00:59:43.713Z,97529.66
2023-04-07T01:02:11.929Z,97523.88
2023-04-07T01:04:41.065Z,97520.50
2023-04-07T01:07:10.560Z,97511.88
2023-04-07T01:09:44.423Z,97508.13
2023-04-07T01:12:14.028Z,97512.13
2023-04-07T01:14:43.635Z,97512.13
2023-04-07T01:17:34.362Z,97507.66
2023-04-07T01:20:03.472Z,97496.94
2023-04-07T01:22:34.005Z,97496.31
2023-04-07T01:25:23.368Z,97504.09
2023-04-07T01:27:56.251Z,97506.00
2023-04-07T01:30:25.602Z,97503.66
2023-04-07T01:32:53.343Z,97503.50
2023-04-07T01:35:21.880Z,97498.00
2023-04-07T01:37:50.581Z,97496.13
2023-04-07T01:40:18.304Z,97492.94
2023-04-07T01:42:46.078Z,97487.03
2023-04-07T01:45:13.907Z,97489.75
2023-04-07T01:47:43.004Z,97496.59
2023-04-07T01:50:11.603Z,97493.16
2023-04-07T01:52:39.515Z,97495.53
2023-04-07T01:55:07.492Z,97496.13
2023-04-07T01:57:39.128Z,97493.91
2023-04-07T02:00:13.938Z,97496.34
2023-04-07T02:02:49.168Z,97500.81
2023-04-07T02:05:19.152Z,97489.75
2023-04-07T02:07:48.017Z,97491.03
2023-04-07T02:10:16.857Z,97493.41
2023-04-07T02:12:45.329Z,97489.75
2023-04-07T02:15:16.808Z,97489.63
2023-04-07T02:17:45.981Z,97477.75
2023-04-07T02:20:15.089Z,97483.03
2023-04-07T02:22:42.775Z,97483.03
2023-04-07T02:25:21.832Z,97489.75
2023-04-07T02:27:49.486Z,97481.75
2023-04-07T02:30:17.188Z,97483.41
2023-04-07T02:32:45.907Z,97478.91
2023-04-07T02:35:17.182Z,97479.50
2023-04-07T02:37:44.944Z,97482.19
2023-04-07T02:40:12.813Z,97478.22
2023-04-07T02:42:40.806Z,97479.13
2023-04-07T02:45:08.958Z,97477.72
2023-04-07T02:47:38.223Z,97472.88
2023-04-07T02:50:06.074Z,97482.66
2023-04-07T02:52:37.752Z,97484.09
2023-04-07T02:55:11.519Z,97487.59
2023-04-07T02:57:39.604Z,97481.47
2023-04-07T03:00:13.163Z,97476.88
2023-04-07T03:02:59.704Z,97478.69
2023-04-07T03:05:30.607Z,97479.75
2023-04-07T03:07:59.824Z,97472.31
2023-04-07T03:10:27.794Z,97465.25
2023-04-07T03:12:55.594Z,97466.44
2023-04-07T03:15:23.279Z,97473.63
2023-04-07T03:17:52.125Z,97464.31
2023-04-07T03:20:21.117Z,97465.97
2023-04-07T03:22:48.819Z,97472.78
2023-04-07T03:25:24.371Z,97470.56
2023-04-07T03:27:52.972Z,97458.91
2023-04-07T03:30:21.687Z,97460.31
2023-04-07T03:32:49.487Z,97461.97
2023-04-07T03:35:17.484Z,97461.25
2023-04-07T03:37:45.940Z,97459.97
2023-04-07T03:40:17.524Z,97464.75
2023-04-07T03:42:47.481Z,97462.19
2023-04-07T03:45:17.380Z,97462.53
2023-04-07T03:47:48.793Z,97464.28
2023-04-07T03:50:17.636Z,97467.81
2023-04-07T03:52:55.641Z,97463.34
2023-04-07T03:55:26.707Z,97461.47
2023-04-07T03:58:01.327Z,97463.09
2023-04-07T04:00:33.513Z,97452.78
2023-04-07T04:03:07.841Z,97453.94
2023-04-07T04:05:39.056Z,97452.31
2023-04-07T04:08:08.041Z,97455.84
2023-04-07T04:10:39.564Z,97453.59
2023-04-07T04:13:08.678Z,97457.13
2023-04-07T04:15:37.023Z,97451.25
2023-04-07T04:18:08.782Z,97450.53
2023-04-07T04:20:37.453Z,97449.03
2023-04-07T04:23:06.123Z,97450.19
2023-04-07T04:25:35.212Z,97449.38
2023-04-07T04:28:08.261Z,97444.44
2023-04-07T04:30:36.525Z,97452.31
2023-04-07T04:33:05.125Z,97446.53
2023-04-07T04:35:42.216Z,97442.88
2023-04-07T04:38:13.399Z,97449.00
2023-04-07T04:40:46.015Z,97444.19
2023-04-07T04:43:16.535Z,97444.16
2023-04-07T04:45:44.262Z,97451.56
2023-04-07T04:48:14.142Z,97442.28
2023-04-07T04:50:43.052Z,97447.91
2023-04-07T04:53:13.590Z,97443.25
2023-04-07T04:55:53.700Z,97449.72
2023-04-07T04:58:40.353Z,97441.94
2023-04-07T05:01:08.921Z,97452.41
2023-04-07T05:03:42.116Z,97457.13
2023-04-07T05:06:18.633Z,97458.16
2023-04-07T05:08:49.894Z,97456.03
2023-04-07T05:11:21.561Z,97451.59
2023-04-07T05:13:54.435Z,97462.31
2023-04-07T05:16:22.210Z,97465.00
2023-04-07T05:18:50.632Z,97466.66
2023-04-07T05:21:20.233Z,97463.69
2023-04-07T05:23:48.011Z,97465.47
2023-04-07T05:26:15.814Z,97468.53
2023-04-07T05:28:43.896Z,97463.69
2023-04-07T05:31:18.977Z,97469.94
2023-04-07T05:33:49.063Z,97468.56
2023-04-07T05:36:17.324Z,97471.81
2023-04-07T05:38:44.968Z,97473.47
2023-04-07T05:41:16.732Z,97473.53
2023-04-07T05:43:44.407Z,97477.03
2023-04-07T05:46:12.309Z,97475.75
2023-04-07T05:48:50.114Z,97477.50
2023-04-07T05:51:19.350Z,97482.34
2023-04-07T05:53:46.950Z,97475.75
2023-04-07T05:56:16.944Z,97476.56
2023-04-07T05:58:47.292Z,97471.38
2023-04-07T06:01:16.665Z,97475.38
2023-04-07T06:03:44.505Z,97478.69
2023-04-07T06:06:28.720Z,97482.94
2023-04-07T06:08:56.368Z,97483.75
2023-04-07T06:11:26.283Z,97478.69
2023-04-07T06:13:54.051Z,97480.34
2023-04-07T06:16:21.715Z,97486.31
2023-04-07T06:18:49.396Z,97488.97
2023-04-07T06:21:16.939Z,97491.47
2023-04-07T06:23:45.842Z,97483.22
2023-04-07T06:26:13.479Z,97495.34
2023-04-07T06:28:41.186Z,97497.13
2023-04-07T06:31:09.121Z,97495.91
2023-04-07T06:33:37.814Z,97492.88
2023-04-07T06:36:05.484Z,97497.75
2023-04-07T06:38:33.004Z,97499.91
2023-04-07T06:41:01.890Z,97491.13
2023-04-07T06:43:29.422Z,97487.78
2023-04-07T06:46:02.486Z,97495.25
2023-04-07T06:48:30.317Z,97492.84
2023-04-07T06:50:57.829Z,97495.16
2023-04-07T06:53:25.550Z,97494.09
2023-04-07T06:55:53.058Z,97489.16
2023-04-07T06:58:22.058Z,97492.91
2023-04-07T07:00:49.567Z,97492.78
2023-04-07T07:03:17.331Z,97495.38
2023-04-07T07:05:44.986Z,97496.50
2023-04-07T07:08:12.515Z,97491.09
2023-04-07T07:10:40.037Z,97500.31
2023-04-07T07:13:07.705Z,97506.63
2023-04-07T07:15:36.631Z,97508.13
2023-04-07T07:18:04.385Z,97509.00
2023-04-07T07:20:31.973Z,97511.38
2023-04-07T07:22:59.921Z,97504.56
2023-04-07T07:25:27.871Z,97508.19
2023-04-07T07:27:55.432Z,97511.53
2023-04-07T07:30:23.104Z,97512.56
2023-04-07T07:32:53.754Z,97520.97
2023-04-07T07:35:21.632Z,97515.47
2023-04-07T07:37:49.244Z,97514.19
2023-04-07T07:40:16.753Z,97521.44
2023-04-07T07:42:44.386Z,97514.91
2023-04-07T07:45:12.657Z,97518.31
2023-04-07T07:47:40.321Z,97528.50
2023-04-07T07:50:09.520Z,97513.28
2023-04-07T07:52:37.095Z,97521.78
2023-04-07T07:55:04.803Z,97517.34
2023-04-07T07:57:32.732Z,97524.25
2023-04-07T08:00:00.379Z,97522.56
2023-04-07T08:02:31.446Z,97518.50
2023-04-07T08:04:59.187Z,97520.16
2023-04-07T08:07:28.363Z,97525.78
2023-04-07T08:09:55.882Z,97529.78
2023-04-07T08:12:23.430Z,97523.81
2023-04-07T08:14:51.019Z,97522.78
2023-04-07T08:17:18.568Z,97520.66
2023-04-07T08:19:46.181Z,97523.91
2023-04-07T08:22:13.717Z,97527.59
2023-04-07T08:24:42.594Z,97523.34
2023-04-07T08:27:10.119Z,97528.53
2023-04-07T08:29:37.661Z,97533.66
2023-04-07T08:32:05.325Z,97526.81
2023-04-07T08:34:32.836Z,97516.63
2023-04-07T08:37:00.669Z,97521.66
2023-04-07T08:39:28.264Z,97523.06
2023-04-07T08:41:57.160Z,97523.00
2023-04-07T08:44:24.679Z,97517.94
2023-04-07T08:46:52.480Z,97512.88
2023-04-07T08:49:20.037Z,97519.78
2023-04-07T08:51:48.437Z,97517.69
2023-04-07T08:54:16.664Z,97520.94
2023-04-07T08:56:44.261Z,97516.38
2023-04-07T08:59:13.395Z,97521.72
2023-04-07T09:01:41.086Z,97514.50
2023-04-07T09:04:09.790Z,97525.56
2023-04-07T09:06:37.725Z,97515.84
2023-04-07T09:09:05.924Z,97523.34
2023-04-07T09:11:35.559Z,97516.28
2023-04-07T09:14:03.081Z,97515.13
2023-04-07T09:16:32.077Z,97524.41
2023-04-07T09:18:59.735Z,97518.47
2023-04-07T09:21:28.442Z,97517.72
2023-04-07T09:23:57.362Z,97511.63
2023-04-07T09:26:25.558Z,97505.59
2023-04-07T09:28:53.915Z,97509.22
2023-04-07T09:31:22.270Z,97507.53
2023-04-07T09:33:51.812Z,97512.03
2023-04-07T09:36:19.568Z,97510.34
2023-04-07T09:38:47.098Z,97514.97
2023-04-07T09:41:15.280Z,97514.56
2023-04-07T09:43:44.776Z,97516.03
2023-04-07T09:46:14.126Z,97511.56
2023-04-07T09:48:41.853Z,97507.47
2023-04-07T09:51:11.672Z,97513.00
2023-04-07T09:53:42.765Z,97509.31
2023-04-07T09:56:10.582Z,97504.13
2023-04-07T09:58:39.236Z,97510.47
2023-04-07T10:01:08.324Z,97511.13
2023-04-07T10:03:35.980Z,97513.56
2023-04-07T10:06:03.721Z,97511.22
2023-04-07T10:08:33.341Z,97499.69
2023-04-07T10:11:01.907Z,97496.66
2023-04-07T10:13:29.476Z,97496.13
2023-04-07T10:15:57.082Z,97492.78
2023-04-07T10:18:24.575Z,97505.34
2023-04-07T10:20:52.116Z,97492.78
2023-04-07T10:23:20.234Z,97494.28
2023-04-07T10:25:49.174Z,97498.75
2023-04-07T10:28:16.715Z,97493.56
2023-04-07T10:30:45.677Z,97488.75
2023-04-07T10:33:13.374Z,97492.84
2023-04-07T10:36:04.069Z,97485.03
2023-04-07T10:38:31.755Z,97490.31
2023-04-07T10:41:00.675Z,97490.22
2023-04-07T10:43:37.827Z,97492.50
2023-04-07T10:46:05.372Z,97472.78
2023-04-07T10:48:34.102Z,97487.91
2023-04-07T10:51:15.539Z,97491.06
2023-04-07T10:54:16.301Z,97478.38
2023-04-07T10:57:02.603Z,97482.66
2023-04-07T10:59:31.534Z,97485.19
2023-04-07T11:02:10.611Z,97482.78
2023-04-07T11:04:38.780Z,97480.72
2023-04-07T11:07:06.385Z,97489.84
2023-04-07T11:09:34.126Z,97484.75
2023-04-07T11:12:01.660Z,97486.69
2023-04-07T11:14:29.269Z,97480.88
2023-04-07T11:16:58.142Z,97478.47
2023-04-07T11:19:25.937Z,97477.22
2023-04-07T11:21:53.454Z,97473.56
2023-04-07T11:24:32.716Z,97462.56
2023-04-07T11:27:01.091Z,97468.47
2023-04-07T11:29:29.130Z,97468.50
2023-04-07T11:31:57.987Z,97465.16
2023-04-07T11:34:29.916Z,97470.69
2023-04-07T11:36:59.809Z,97477.22
2023-04-07T11:39:31.181Z,97476.38
2023-04-07T11:41:58.742Z,97468.59
2023-04-07T11:44:26.960Z,97461.94
2023-04-07T11:46:54.917Z,97471.25
2023-04-07T11:49:25.006Z,97472.28
2023-04-07T11:51:58.576Z,97474.56
2023-04-07T11:54:26.115Z,97477.00
2023-04-07T11:56:55.635Z,97471.72
2023-04-07T11:59:23.785Z,97470.91
2023-04-07T12:01:51.718Z,97472.66
2023-04-07T12:04:19.778Z,97469.94
2023-04-07T12:06:49.086Z,97466.59
2023-04-07T12:09:26.603Z,97458.81
2023-04-07T12:11:54.144Z,97461.38
2023-04-07T12:14:21.681Z,97464.25
2023-04-07T12:16:49.249Z,97457.22
2023-04-07T12:19:16.836Z,97461.94
2023-04-07T12:21:44.366Z,97467.94
2023-04-07T12:24:13.266Z,97470.31
2023-04-07T12:26:40.795Z,97469.25
2023-04-07T12:29:08.315Z,97464.97
2023-04-07T12:31:36.364Z,97476.19
2023-04-07T12:34:04.068Z,97472.13
2023-04-07T12:36:31.598Z,97476.34
2023-04-07T12:39:00.128Z,97466.94
2023-04-07T12:41:28.991Z,97470.22
2023-04-07T12:43:56.541Z,97464.78
2023-04-07T12:46:24.223Z,97469.06
2023-04-07T12:48:51.818Z,97467.66
2023-04-07T12:51:19.312Z,97462.03
2023-04-07T12:53:47.663Z,97458.81
2023-04-07T12:56:15.785Z,97456.97
2023-04-07T12:58:44.724Z,97457.69
2023-04-07T13:01:12.311Z,97460.88
2023-04-07T13:03:40.145Z,97455.13
2023-04-07T13:06:07.941Z,97467.13
2023-04-07T13:08:35.721Z,97467.13
2023-04-07T13:11:03.462Z,97461.38
2023-04-07T13:13:31.469Z,97467.22
2023-04-07T13:16:00.970Z,97462.22
2023-04-07T13:18:28.527Z,97461.50
2023-04-07T13:21:24.899Z,97463.69
2023-04-07T13:23:54.018Z,97465.78
2023-04-07T13:26:22.327Z,97461.84
2023-04-07T13:28:49.856Z,97459.97
2023-04-07T13:31:18.793Z,97448.84
2023-04-07T13:33:46.601Z,97454.09
2023-04-07T13:36:14.332Z,97456.22
2023-04-07T13:38:42.474Z,97447.63
2023-04-07T13:41:10.080Z,97453.16
2023-04-07T13:43:37.632Z,97457.84
2023-04-07T13:46:11.752Z,97455.94
2023-04-07T13:48:46.608Z,97449.31
2023-04-07T13:51:14.154Z,97448.09
2023-04-07T13:53:41.695Z,97446.06
2023-04-07T13:56:10.368Z,97445.69
2023-04-07T13:58:37.993Z,97455.31
2023-04-07T14:01:05.621Z,97447.22
2023-04-07T14:03:33.309Z,97445.78
2023-04-07T14:06:02.194Z,97448.09
2023-04-07T14:08:29.731Z,97446.13
2023-04-07T14:10:57.241Z,97445.22
2023-04-07T14:13:25.019Z,97439.41
2023-04-07T14:19:39.657Z,97446.69
2023-04-07T14:22:08.447Z,97449.06
2023-04-07T14:24:35.917Z,97439.34
2023-04-07T14:27:03.949Z,97440.50
2023-04-07T14:29:31.527Z,97439.13
2023-04-07T14:31:59.024Z,97446.06
2023-04-07T14:34:26.633Z,97455.50
2023-04-07T14:36:54.617Z,97456.88
2023-04-07T14:39:24.057Z,97452.97
2023-04-07T14:41:51.595Z,97461.03
2023-04-07T14:44:19.392Z,97463.50
2023-04-07T14:46:46.995Z,97458.06
2023-04-07T14:49:14.718Z,97450.75
2023-04-07T14:51:42.248Z,97451.75
2023-04-07T14:54:09.796Z,97453.56
2023-04-07T14:56:38.749Z,97445.19
2023-04-07T14:59:06.282Z,97452.22
2023-04-07T15:01:33.951Z,97447.53
2023-04-07T15:04:01.700Z,97455.19
2023-04-07T15:06:29.300Z,97453.66
2023-04-07T15:08:56.847Z,97459.03
2023-04-07T15:11:24.384Z,97457.69
2023-04-07T15:13:53.329Z,97462.41
2023-04-07T15:16:21.085Z,97458.09
2023-04-07T15:18:49.106Z,97462.00
2023-04-07T15:21:16.696Z,97457.28
2023-04-07T15:23:44.219Z,97457.84
2023-04-07T15:26:11.746Z,97462.88
2023-04-07T15:28:39.313Z,97458.94
2023-04-07T15:31:08.967Z,97466.19
2023-04-07T15:33:37.064Z,97460.06
2023-04-07T15:36:04.793Z,97468.41
2023-04-07T15:38:32.382Z,97472.75
2023-04-07T15:40:59.925Z,97470.25
2023-04-07T15:43:27.517Z,97472.03
2023-04-07T15:45:55.616Z,97466.63
2023-04-07T15:48:24.535Z,97475.59
2023-04-07T15:50:52.265Z,97478.56
2023-04-07T15:53:19.787Z,97467.31
2023-04-07T15:55:47.269Z,97478.03
2023-04-07T15:58:14.808Z,97473.28
2023-04-07T16:00:42.323Z,97473.03
2023-04-07T16:03:10.147Z,97479.13
2023-04-07T16:05:39.646Z,97480.69
2023-04-07T16:08:07.185Z,97479.84
2023-04-07T16:10:34.839Z,97487.09
2023-04-07T16:13:02.396Z,97486.44
2023-04-07T16:15:40.061Z,97488.78
2023-04-07T16:18:09.036Z,97479.28
2023-04-07T16:20:36.709Z,97485.53
2023-04-07T16:23:05.592Z,97487.88
2023-04-07T16:25:33.245Z,97488.19
2023-04-07T16:28:00.899Z,97486.81
2023-04-07T16:30:28.454Z,97488.84
2023-04-07T16:32:56.287Z,97494.03
2023-04-07T16:35:33.675Z,97492.69
2023-04-07T16:38:04.743Z,97489.03
2023-04-07T16:40:34.152Z,97505.56
2023-04-07T16:43:01.910Z,97504.63
2023-04-07T16:45:29.845Z,97502.19
2023-04-07T16:47:57.422Z,97506.28
2023-04-07T16:50:25.409Z,97514.94
2023-04-07T16:52:53.076Z,97508.22
2023-04-07T16:55:20.887Z,97515.44
2023-04-07T16:57:49.766Z,97509.38
2023-04-07T17:00:17.511Z,97511.50
2023-04-07T17:02:45.296Z,97512.63
2023-04-07T17:05:13.002Z,97526.88
2023-04-07T17:07:40.543Z,97529.66
2023-04-07T17:10:08.612Z,97533.41
2023-04-07T17:12:36.688Z,97530.44
2023-04-07T17:15:05.911Z,97544.19
2023-04-07T17:17:33.565Z,97541.03
2023-04-07T17:20:01.540Z,97538.19
2023-04-07T17:22:29.362Z,97540.81
2023-04-07T17:24:56.878Z,97540.06
2023-04-07T17:27:24.488Z,97538.06
2023-04-07T17:29:51.963Z,97541.63
2023-04-07T17:32:20.934Z,97534.00
2023-04-07T17:34:48.614Z,97538.16
2023-04-07T17:37:16.180Z,97533.66
2023-04-07T17:39:43.733Z,97529.03
2023-04-07T17:42:11.584Z,97532.81
2023-04-07T17:44:39.215Z,97519.97
2023-04-07T17:47:06.774Z,97528.94
2023-04-07T17:49:35.637Z,97534.88
2023-04-07T17:52:03.568Z,97539.81
2023-04-07T17:54:31.188Z,97538.22
2023-04-07T17:56:58.808Z,97538.81
2023-04-07T17:59:26.397Z,97534.69
2023-04-07T18:01:54.061Z,97535.16
2023-04-07T18:04:22.282Z,97539.19
2023-04-07T18:06:51.596Z,97538.72
2023-04-07T18:09:19.230Z,97548.59
2023-04-07T18:11:46.779Z,97546.06
2023-04-07T18:14:14.403Z,97549.75
2023-04-07T18:16:41.939Z,97552.25
2023-04-07T18:19:09.483Z,97554.16
2023-04-07T18:21:37.794Z,97559.63
2023-04-07T18:24:06.718Z,97565.75
2023-04-07T18:26:34.272Z,97554.09
2023-04-07T18:29:01.868Z,97552.75
2023-04-07T18:31:29.550Z,97548.22
2023-04-07T18:33:57.133Z,97547.38
2023-04-07T18:36:27.365Z,97556.44
2023-04-07T18:38:54.953Z,97555.13
2023-04-07T18:41:23.904Z,97555.09
2023-04-07T18:43:51.892Z,97557.19
2023-04-07T18:46:19.699Z,97567.06
2023-04-07T18:48:47.258Z,97567.34
2023-04-07T18:51:14.786Z,97568.06
2023-04-07T18:53:42.302Z,97566.34
2023-04-07T18:56:09.883Z,97562.63
2023-04-07T18:58:43.888Z,97564.38
2023-04-07T19:01:11.747Z,97560.28
2023-04-07T19:03:39.678Z,97558.13
2023-04-07T19:06:07.340Z,97560.06
2023-04-07T19:08:35.189Z,97559.00
2023-04-07T19:11:02.947Z,97553.16
2023-04-07T19:13:33.347Z,97558.59
2023-04-07T19:16:02.420Z,97568.81
2023-04-07T19:18:31.743Z,97569.38
2023-04-07T19:20:59.427Z,97582.75
2023-04-07T19:23:27.088Z,97594.84
2023-04-07T19:25:54.979Z,97594.94
2023-04-07T19:28:22.657Z,97593.31
2023-04-07T19:30:50.429Z,97602.13
2023-04-07T19:33:19.756Z,97600.31
2023-04-07T19:35:47.980Z,97599.34
2023-04-07T19:38:15.793Z,97610.84
2023-04-07T19:40:44.613Z,97611.06
2023-04-07T19:43:14.226Z,97608.16
2023-04-07T19:45:41.904Z,97611.44
2023-04-07T19:48:09.516Z,97607.47
2023-04-07T19:50:43.569Z,97604.09
2023-04-07T19:53:15.772Z,97609.09
2023-04-07T19:55:43.367Z,97606.47
2023-04-07T19:58:15.631Z,97604.59
2023-04-07T20:00:45.344Z,97610.16
2023-04-07T20:03:13.154Z,97603.72
2023-04-07T20:05:42.267Z,97607.81
2023-04-07T20:08:10.608Z,97603.47
2023-04-07T20:10:40.739Z,97600.84
2023-04-07T20:13:09.190Z,97597.72
2023-04-07T20:15:36.875Z,97598.44
2023-04-07T20:18:04.680Z,97592.00
2023-04-07T20:20:32.390Z,97591.03
2023-04-07T20:23:01.236Z,97596.91
2023-04-07T20:25:28.858Z,97597.34
2023-04-07T20:27:56.380Z,97596.38
2023-04-07T20:30:23.989Z,97602.69
2023-04-07T20:32:51.685Z,97601.75
2023-04-07T20:35:19.703Z,97603.66
2023-04-07T20:37:47.265Z,97598.25
2023-04-07T20:40:16.149Z,97605.91
2023-04-07T20:42:43.693Z,97603.06
2023-04-07T20:45:12.579Z,97608.34
2023-04-07T20:47:40.574Z,97612.47
2023-04-07T20:50:09.214Z,97603.47
2023-04-07T20:52:40.055Z,97618.78
2023-04-07T20:55:08.122Z,97623.41
2023-04-07T20:57:37.066Z,97631.88
2023-04-07T21:00:05.564Z,97633.59
2023-04-07T21:02:33.217Z,97637.97
2023-04-07T21:05:01.611Z,97641.66
2023-04-07T21:07:29.130Z,97643.25
2023-04-07T21:09:56.910Z,97639.97
2023-04-07T21:12:24.582Z,97641.88
2023-04-07T21:14:53.470Z,97643.81
2023-04-07T21:17:21.032Z,97643.50
2023-04-07T21:19:48.556Z,97640.75
2023-04-07T21:22:16.076Z,97643.41
2023-04-07T21:24:43.592Z,97648.88
2023-04-07T21:27:11.796Z,97648.47
2023-04-07T21:29:41.111Z,97647.44
2023-04-07T21:32:10.420Z,97650.44
2023-04-07T21:34:37.962Z,97647.09
2023-04-07T21:37:05.465Z,97646.81
2023-04-07T21:39:33.307Z,97648.22
2023-04-07T21:42:01.460Z,97651.81
2023-04-07T21:44:29.086Z,97664.03
2023-04-07T21:46:56.961Z,97663.63
2023-04-07T21:49:25.899Z,97672.41
2023-04-07T21:51:53.746Z,97678.06
2023-04-07T21:54:21.621Z,97675.28
2023-04-07T21:56:51.578Z,97677.41
2023-04-07T21:59:19.214Z,97675.75
2023-04-07T22:01:47.118Z,97669.63
2023-04-07T22:04:14.920Z,97664.41
2023-04-07T22:06:43.809Z,97671.16
2023-04-07T22:09:11.798Z,97668.84
2023-04-07T22:11:39.336Z,97673.53
2023-04-07T22:14:06.890Z,97674.94
2023-04-07T22:16:34.596Z,97678.16
2023-04-07T22:19:02.255Z,97676.97
2023-04-07T22:21:29.829Z,97680.25
2023-04-07T22:23:58.734Z,97675.81
2023-04-07T22:26:26.272Z,97676.00
2023-04-07T22:28:53.812Z,97666.94
2023-04-07T22:31:21.430Z,97676.13
2023-04-07T22:33:49.102Z,97680.06
2023-04-07T22:36:16.617Z,97688.56
2023-04-07T22:38:44.443Z,97689.78
2023-04-07T22:41:13.292Z,97701.69
2023-04-07T22:43:41.700Z,97702.44
2023-04-07T22:46:09.222Z,97704.56
2023-04-07T22:48:36.765Z,97705.06
2023-04-07T22:51:04.411Z,97706.06
2023-04-07T22:53:32.904Z,97704.53
2023-04-07T22:56:01.301Z,97713.78
2023-04-07T22:58:30.178Z,97713.44
2023-04-07T23:00:57.732Z,97710.53
2023-04-07T23:03:25.442Z,97712.00
2023-04-07T23:05:53.023Z,97703.22
2023-04-07T23:08:20.627Z,97706.91
2023-04-07T23:10:48.165Z,97719.59
2023-04-07T23:13:15.900Z,97722.72
2023-04-07T23:15:44.757Z,97717.06
2023-04-07T23:18:12.289Z,97719.13
2023-04-07T23:20:39.826Z,97736.00
2023-04-07T23:23:07.406Z,97734.78
2023-04-07T23:25:34.951Z,97736.16
2023-04-07T23:28:02.488Z,97744.13
2023-04-07T23:30:30.040Z,97748.78
2023-04-07T23:32:59.033Z,97749.78
2023-04-07T23:35:26.653Z,97765.00
2023-04-07T23:37:54.187Z,97766.50
2023-04-07T23:40:21.720Z,97770.75
2023-04-07T23:42:49.258Z,97779.13
2023-04-07T23:45:17.738Z,97782.75
2023-04-07T23:47:47.369Z,97792.84
2023-04-07T23:50:16.314Z,97795.94
2023-04-07T23:52:44.187Z,97796.88
2023-04-07T23:55:11.778Z,97797.81
2023-04-07T23:57:39.331Z,97801.81
